Terminal Aerodrome Forecast
Issued by NWS Atlanta, GA

Home | Current Version | Previous Version | Text Only | Print | Product List | Glossary On
Versions: 1 2 3 4 5 6 7 8 9 10 11 12 13 14 15 16 17 18 19 20 21 22 23 24 25 26
973
FTUS42 KFFC 291006 AAA
TAFCSG
TAF AMD
KCSG 291006Z 2910/3006 00000KT 4SM BR SCT001
      TEMPO 2910/2913 1SM BR BKN001
     FM291300 00000KT P6SM FEW250
     FM291500 04003KT P6SM FEW045
     FM300100 21003KT P6SM FEW250=

USA.gov is the U.S. government's official web portal to all federal, state and local government web resources and services.